sensor_id;sensor_type;location;lat;lon;timestamp;pressure;altitude;pressure_sealevel;temperature;humidity
6425;BME280;12193;42.642;23.384;2022-07-23T00:00:57;94735.13;;;20.60;59.20
6425;BME280;12193;42.642;23.384;2022-07-23T00:03:26;94733.66;;;20.32;60.03
6425;BME280;12193;42.642;23.384;2022-07-23T00:05:56;94741.66;;;20.06;62.13
6425;BME280;12193;42.642;23.384;2022-07-23T00:08:27;94725.63;;;19.91;62.59
6425;BME280;12193;42.642;23.384;2022-07-23T00:10:57;94742.88;;;19.98;62.66
6425;BME280;12193;42.642;23.384;2022-07-23T00:13:27;94743.88;;;19.92;63.16
6425;BME280;12193;42.642;23.384;2022-07-23T00:15:56;94747.47;;;19.82;64.20
6425;BME280;12193;42.642;23.384;2022-07-23T00:18:25;94746.84;;;19.70;64.45
6425;BME280;12193;42.642;23.384;2022-07-23T00:20:54;94745.88;;;19.81;64.27
6425;BME280;12193;42.642;23.384;2022-07-23T00:23:24;94741.34;;;19.76;64.56
6425;BME280;12193;42.642;23.384;2022-07-23T00:25:57;94749.09;;;19.88;64.52
6425;BME280;12193;42.642;23.384;2022-07-23T00:28:27;94747.50;;;19.87;64.64
6425;BME280;12193;42.642;23.384;2022-07-23T00:30:56;94754.59;;;19.81;64.74
6425;BME280;12193;42.642;23.384;2022-07-23T00:33:25;94749.44;;;19.96;64.65
6425;BME280;12193;42.642;23.384;2022-07-23T00:35:54;94747.56;;;19.91;65.39
6425;BME280;12193;42.642;23.384;2022-07-23T00:38:24;94753.75;;;20.02;65.84
6425;BME280;12193;42.642;23.384;2022-07-23T00:40:53;94755.63;;;20.06;66.34
6425;BME280;12193;42.642;23.384;2022-07-23T00:43:25;94750.63;;;20.05;66.76
6425;BME280;12193;42.642;23.384;2022-07-23T00:45:55;94742.69;;;20.05;66.89
6425;BME280;12193;42.642;23.384;2022-07-23T00:48:24;94742.22;;;20.13;66.75
6425;BME280;12193;42.642;23.384;2022-07-23T00:50:53;94749.25;;;20.02;67.38
6425;BME280;12193;42.642;23.384;2022-07-23T00:53:22;94748.72;;;20.00;67.16
6425;BME280;12193;42.642;23.384;2022-07-23T00:55:53;94741.84;;;19.99;67.04
6425;BME280;12193;42.642;23.384;2022-07-23T00:58:25;94745.84;;;20.02;67.11
6425;BME280;12193;42.642;23.384;2022-07-23T01:00:54;94743.75;;;20.04;66.24
6425;BME280;12193;42.642;23.384;2022-07-23T01:03:24;94743.44;;;20.00;66.16
6425;BME280;12193;42.642;23.384;2022-07-23T01:05:53;94745.22;;;19.95;65.93
6425;BME280;12193;42.642;23.384;2022-07-23T01:08:22;94742.69;;;19.79;66.27
6425;BME280;12193;42.642;23.384;2022-07-23T01:10:51;94739.78;;;20.06;65.13
6425;BME280;12193;42.642;23.384;2022-07-23T01:13:21;94745.22;;;19.95;65.00
6425;BME280;12193;42.642;23.384;2022-07-23T01:15:53;94740.69;;;19.90;65.26
6425;BME280;12193;42.642;23.384;2022-07-23T01:18:22;94743.78;;;19.83;66.09
6425;BME280;12193;42.642;23.384;2022-07-23T01:20:51;94742.13;;;19.45;68.29
6425;BME280;12193;42.642;23.384;2022-07-23T01:23:23;94748.94;;;19.41;68.35
6425;BME280;12193;42.642;23.384;2022-07-23T01:25:53;94744.09;;;19.33;68.71
6425;BME280;12193;42.642;23.384;2022-07-23T01:28:23;94732.59;;;19.18;68.94
6425;BME280;12193;42.642;23.384;2022-07-23T01:30:53;94738.78;;;19.07;69.19
6425;BME280;12193;42.642;23.384;2022-07-23T01:33:22;94741.41;;;19.07;69.46
6425;BME280;12193;42.642;23.384;2022-07-23T01:35:51;94733.88;;;18.94;70.21
6425;BME280;12193;42.642;23.384;2022-07-23T01:38:23;94727.63;;;18.79;69.84
6425;BME280;12193;42.642;23.384;2022-07-23T01:40:52;94736.13;;;18.85;69.81
6425;BME280;12193;42.642;23.384;2022-07-23T01:43:21;94726.69;;;18.89;69.44
6425;BME280;12193;42.642;23.384;2022-07-23T01:45:51;94738.53;;;18.87;69.24
6425;BME280;12193;42.642;23.384;2022-07-23T01:48:20;94733.63;;;18.95;69.11
6425;BME280;12193;42.642;23.384;2022-07-23T01:50:49;94734.03;;;18.87;69.44
6425;BME280;12193;42.642;23.384;2022-07-23T01:53:18;94736.06;;;19.02;68.46
6425;BME280;12193;42.642;23.384;2022-07-23T01:55:50;94731.84;;;19.01;68.42
6425;BME280;12193;42.642;23.384;2022-07-23T01:58:20;94735.22;;;19.18;67.33
6425;BME280;12193;42.642;23.384;2022-07-23T02:00:49;94733.75;;;19.27;66.83
6425;BME280;12193;42.642;23.384;2022-07-23T02:03:18;94742.94;;;19.03;68.26
6425;BME280;12193;42.642;23.384;2022-07-23T02:05:48;94738.28;;;19.10;68.00
6425;BME280;12193;42.642;23.384;2022-07-23T02:08:17;94739.25;;;19.04;68.67
6425;BME280;12193;42.642;23.384;2022-07-23T02:10:46;94735.41;;;18.90;69.50
6425;BME280;12193;42.642;23.384;2022-07-23T02:13:20;94739.69;;;18.96;68.68
6425;BME280;12193;42.642;23.384;2022-07-23T02:15:49;94741.16;;;18.87;69.08
6425;BME280;12193;42.642;23.384;2022-07-23T02:18:18;94742.50;;;18.89;68.99
6425;BME280;12193;42.642;23.384;2022-07-23T02:20:47;94740.13;;;18.88;69.35
6425;BME280;12193;42.642;23.384;2022-07-23T02:23:17;94732.97;;;18.83;69.15
6425;BME280;12193;42.642;23.384;2022-07-23T02:25:46;94733.88;;;18.94;68.48
6425;BME280;12193;42.642;23.384;2022-07-23T02:28:15;94735.09;;;19.08;67.69
6425;BME280;12193;42.642;23.384;2022-07-23T02:30:47;94738.41;;;19.20;67.16
6425;BME280;12193;42.642;23.384;2022-07-23T02:33:16;94737.44;;;19.26;67.26
6425;BME280;12193;42.642;23.384;2022-07-23T02:35:46;94743.66;;;18.77;69.59
6425;BME280;12193;42.642;23.384;2022-07-23T02:38:15;94748.25;;;18.65;70.45
6425;BME280;12193;42.642;23.384;2022-07-23T02:40:44;94743.50;;;18.46;71.42
6425;BME280;12193;42.642;23.384;2022-07-23T02:43:13;94746.09;;;18.41;72.26
6425;BME280;12193;42.642;23.384;2022-07-23T02:45:42;94746.88;;;18.41;72.49
6425;BME280;12193;42.642;23.384;2022-07-23T02:48:14;94762.97;;;18.45;72.54
6425;BME280;12193;42.642;23.384;2022-07-23T02:50:44;94749.75;;;18.40;73.12
6425;BME280;12193;42.642;23.384;2022-07-23T02:53:13;94759.00;;;18.42;73.19
6425;BME280;12193;42.642;23.384;2022-07-23T02:58:31;94756.84;;;18.39;73.82
6425;BME280;12193;42.642;23.384;2022-07-23T03:01:01;94756.06;;;18.39;74.01
6425;BME280;12193;42.642;23.384;2022-07-23T03:03:33;94758.34;;;18.35;74.42
6425;BME280;12193;42.642;23.384;2022-07-23T03:06:02;94754.00;;;18.24;75.34
6425;BME280;12193;42.642;23.384;2022-07-23T03:08:31;94761.91;;;18.24;75.54
6425;BME280;12193;42.642;23.384;2022-07-23T03:11:01;94764.03;;;18.11;76.19
6425;BME280;12193;42.642;23.384;2022-07-23T03:13:30;94768.50;;;18.10;76.36
6425;BME280;12193;42.642;23.384;2022-07-23T03:16:00;94772.84;;;18.05;76.49
6425;BME280;12193;42.642;23.384;2022-07-23T03:18:29;94784.59;;;18.14;76.25
6425;BME280;12193;42.642;23.384;2022-07-23T03:21:01;94772.41;;;17.91;77.51
6425;BME280;12193;42.642;23.384;2022-07-23T03:23:30;94782.34;;;18.06;76.86
6425;BME280;12193;42.642;23.384;2022-07-23T03:26:00;94780.06;;;18.09;76.12
6425;BME280;12193;42.642;23.384;2022-07-23T03:28:29;94783.66;;;18.20;76.04
6425;BME280;12193;42.642;23.384;2022-07-23T03:30:58;94779.84;;;18.27;75.75
6425;BME280;12193;42.642;23.384;2022-07-23T03:33:28;94789.47;;;18.05;76.49
6425;BME280;12193;42.642;23.384;2022-07-23T03:35:57;94783.63;;;17.87;77.81
6425;BME280;12193;42.642;23.384;2022-07-23T03:38:29;94785.56;;;17.91;78.03
6425;BME280;12193;42.642;23.384;2022-07-23T03:40:59;94783.56;;;17.82;78.37
6425;BME280;12193;42.642;23.384;2022-07-23T03:43:28;94788.00;;;17.81;78.59
6425;BME280;12193;42.642;23.384;2022-07-23T03:45:57;94790.41;;;17.83;78.42
6425;BME280;12193;42.642;23.384;2022-07-23T03:48:26;94782.13;;;18.07;77.25
6425;BME280;12193;42.642;23.384;2022-07-23T03:50:56;94791.44;;;17.98;77.94
6425;BME280;12193;42.642;23.384;2022-07-23T03:53:25;94787.13;;;18.09;76.97
6425;BME280;12193;42.642;23.384;2022-07-23T03:55:57;94795.50;;;18.06;77.17
6425;BME280;12193;42.642;23.384;2022-07-23T03:58:26;94795.28;;;18.07;77.45
6425;BME280;12193;42.642;23.384;2022-07-23T04:00:55;94799.41;;;18.03;77.72
6425;BME280;12193;42.642;23.384;2022-07-23T04:03:25;94784.53;;;17.92;78.53
6425;BME280;12193;42.642;23.384;2022-07-23T04:05:54;94799.25;;;18.10;78.10
6425;BME280;12193;42.642;23.384;2022-07-23T04:08:24;94790.94;;;17.85;79.69
6425;BME280;12193;42.642;23.384;2022-07-23T04:10:56;94795.75;;;18.04;78.64
6425;BME280;12193;42.642;23.384;2022-07-23T04:13:25;94788.91;;;18.20;77.96
6425;BME280;12193;42.642;23.384;2022-07-23T04:15:54;94793.88;;;18.33;77.36
6425;BME280;12193;42.642;23.384;2022-07-23T04:18:24;94783.56;;;18.48;76.76
6425;BME280;12193;42.642;23.384;2022-07-23T04:20:53;94792.03;;;18.33;76.84
6425;BME280;12193;42.642;23.384;2022-07-23T04:23:23;94788.75;;;18.10;78.22
6425;BME280;12193;42.642;23.384;2022-07-23T04:25:52;94800.13;;;18.15;77.99
6425;BME280;12193;42.642;23.384;2022-07-23T04:28:24;94803.66;;;18.37;77.55
6425;BME280;12193;42.642;23.384;2022-07-23T04:30:56;94798.28;;;18.65;75.82
6425;BME280;12193;42.642;23.384;2022-07-23T04:33:25;94801.72;;;18.66;75.63
6425;BME280;12193;42.642;23.384;2022-07-23T04:35:54;94792.09;;;18.55;74.91
6425;BME280;12193;42.642;23.384;2022-07-23T04:38:23;94803.59;;;18.86;74.82
6425;BME280;12193;42.642;23.384;2022-07-23T04:40:53;94805.41;;;19.02;73.92
6425;BME280;12193;42.642;23.384;2022-07-23T04:43:25;94804.19;;;19.31;73.14
6425;BME280;12193;42.642;23.384;2022-07-23T04:45:54;94803.34;;;19.09;73.78
6425;BME280;12193;42.642;23.384;2022-07-23T04:48:23;94811.50;;;19.08;73.87
6425;BME280;12193;42.642;23.384;2022-07-23T04:50:52;94809.66;;;19.25;71.70
6425;BME280;12193;42.642;23.384;2022-07-23T04:53:22;94808.78;;;19.67;71.28
6425;BME280;12193;42.642;23.384;2022-07-23T04:55:51;94813.22;;;19.88;71.38
6425;BME280;12193;42.642;23.384;2022-07-23T04:58:20;94814.78;;;20.10;70.36
6425;BME280;12193;42.642;23.384;2022-07-23T05:00:53;94816.47;;;19.95;69.88
6425;BME280;12193;42.642;23.384;2022-07-23T05:03:23;94815.03;;;20.09;69.06
6425;BME280;12193;42.642;23.384;2022-07-23T05:05:53;94809.97;;;20.70;67.71
6425;BME280;12193;42.642;23.384;2022-07-23T05:08:22;94812.06;;;21.09;66.42
6425;BME280;12193;42.642;23.384;2022-07-23T05:10:52;94809.06;;;21.57;64.00
6425;BME280;12193;42.642;23.384;2022-07-23T05:13:21;94812.03;;;21.66;63.36
6425;BME280;12193;42.642;23.384;2022-07-23T05:15:53;94807.03;;;21.74;63.27
6425;BME280;12193;42.642;23.384;2022-07-23T05:18:22;94811.56;;;21.89;62.42
6425;BME280;12193;42.642;23.384;2022-07-23T05:20:51;94812.13;;;22.25;61.13
6425;BME280;12193;42.642;23.384;2022-07-23T05:23:21;94807.38;;;22.67;59.39
6425;BME280;12193;42.642;23.384;2022-07-23T05:25:50;94808.00;;;23.37;57.59
6425;BME280;12193;42.642;23.384;2022-07-23T05:28:19;94807.41;;;24.47;53.80
6425;BME280;12193;42.642;23.384;2022-07-23T05:30:49;94811.69;;;25.28;51.22
6425;BME280;12193;42.642;23.384;2022-07-23T05:33:21;94809.78;;;26.31;47.50
6425;BME280;12193;42.642;23.384;2022-07-23T05:35:50;94813.06;;;26.09;48.41
6425;BME280;12193;42.642;23.384;2022-07-23T05:38:19;94817.00;;;26.12;48.10
6425;BME280;12193;42.642;23.384;2022-07-23T05:40:49;94809.19;;;25.13;50.53
6425;BME280;12193;42.642;23.384;2022-07-23T05:43:18;94814.41;;;25.23;49.34
6425;BME280;12193;42.642;23.384;2022-07-23T05:45:47;94807.00;;;24.63;49.59
6425;BME280;12193;42.642;23.384;2022-07-23T05:48:17;94814.88;;;24.73;49.48
6425;BME280;12193;42.642;23.384;2022-07-23T05:50:49;94805.25;;;25.06;48.93
6425;BME280;12193;42.642;23.384;2022-07-23T05:53:18;94813.63;;;24.66;50.37
6425;BME280;12193;42.642;23.384;2022-07-23T05:55:47;94805.94;;;24.93;49.62
6425;BME280;12193;42.642;23.384;2022-07-23T05:58:17;94811.69;;;25.93;47.24
6425;BME280;12193;42.642;23.384;2022-07-23T06:00:46;94817.00;;;26.12;47.33
6425;BME280;12193;42.642;23.384;2022-07-23T06:03:15;94805.06;;;26.91;44.83
6425;BME280;12193;42.642;23.384;2022-07-23T06:05:45;94804.59;;;27.48;43.04
6425;BME280;12193;42.642;23.384;2022-07-23T06:08:16;94810.81;;;27.84;43.66
6425;BME280;12193;42.642;23.384;2022-07-23T06:10:46;94812.28;;;27.63;43.98
6425;BME280;12193;42.642;23.384;2022-07-23T06:13:17;94808.66;;;28.65;42.18
6425;BME280;12193;42.642;23.384;2022-07-23T06:15:47;94802.59;;;29.25;40.32
6425;BME280;12193;42.642;23.384;2022-07-23T06:18:16;94799.31;;;28.98;40.71
6425;BME280;12193;42.642;23.384;2022-07-23T06:20:46;94799.13;;;29.55;39.71
6425;BME280;12193;42.642;23.384;2022-07-23T06:23:17;94801.22;;;29.75;39.43
6425;BME280;12193;42.642;23.384;2022-07-23T06:25:47;94794.84;;;30.01;38.29
6425;BME280;12193;42.642;23.384;2022-07-23T06:28:16;94797.38;;;30.66;37.86
6425;BME280;12193;42.642;23.384;2022-07-23T06:30:45;94789.78;;;30.51;36.95
6425;BME280;12193;42.642;23.384;2022-07-23T06:33:15;94795.00;;;30.73;36.62
6425;BME280;12193;42.642;23.384;2022-07-23T06:35:44;94791.41;;;30.52;36.93
6425;BME280;12193;42.642;23.384;2022-07-23T06:38:16;94793.41;;;30.80;36.70
6425;BME280;12193;42.642;23.384;2022-07-23T06:40:46;94785.72;;;31.24;35.89
6425;BME280;12193;42.642;23.384;2022-07-23T06:43:15;94794.84;;;30.52;37.01
6425;BME280;12193;42.642;23.384;2022-07-23T06:45:44;94788.19;;;30.75;35.28
6425;BME280;12193;42.642;23.384;2022-07-23T06:48:14;94786.78;;;30.69;33.27
6425;BME280;12193;42.642;23.384;2022-07-23T06:50:43;94791.03;;;30.95;33.84
6425;BME280;12193;42.642;23.384;2022-07-23T06:53:12;94792.16;;;31.78;33.89
6425;BME280;12193;42.642;23.384;2022-07-23T06:55:44;94785.59;;;32.36;31.92
6425;BME280;12193;42.642;23.384;2022-07-23T06:58:14;94783.91;;;32.03;33.37
6425;BME280;12193;42.642;23.384;2022-07-23T07:00:45;94782.56;;;32.17;32.99
6425;BME280;12193;42.642;23.384;2022-07-23T07:03:14;94785.31;;;31.05;34.74
6425;BME280;12193;42.642;23.384;2022-07-23T07:05:43;94791.91;;;31.62;33.35
6425;BME280;12193;42.642;23.384;2022-07-23T07:08:12;94780.56;;;31.02;34.25
6425;BME280;12193;42.642;23.384;2022-07-23T07:10:45;94780.09;;;31.09;33.72
6425;BME280;12193;42.642;23.384;2022-07-23T07:13:14;94771.63;;;31.93;33.20
6425;BME280;12193;42.642;23.384;2022-07-23T07:15:43;94773.72;;;32.37;32.26
6425;BME280;12193;42.642;23.384;2022-07-23T07:18:13;94773.72;;;32.17;32.11
6425;BME280;12193;42.642;23.384;2022-07-23T07:20:42;94775.88;;;32.64;31.61
6425;BME280;12193;42.642;23.384;2022-07-23T07:23:12;94766.25;;;32.75;31.15
6425;BME280;12193;42.642;23.384;2022-07-23T07:25:44;94763.41;;;32.92;30.81
6425;BME280;12193;42.642;23.384;2022-07-23T07:28:14;94768.09;;;33.15;30.68
6425;BME280;12193;42.642;23.384;2022-07-23T07:30:43;94757.22;;;32.92;30.38
6425;BME280;12193;42.642;23.384;2022-07-23T07:33:12;94760.38;;;32.94;30.75
6425;BME280;12193;42.642;23.384;2022-07-23T07:35:42;94748.34;;;33.35;29.77
6425;BME280;12193;42.642;23.384;2022-07-23T07:38:11;94753.31;;;33.81;29.36
6425;BME280;12193;42.642;23.384;2022-07-23T07:40:40;94752.38;;;34.13;29.08
6425;BME280;12193;42.642;23.384;2022-07-23T07:43:12;94758.72;;;32.69;31.22
6425;BME280;12193;42.642;23.384;2022-07-23T07:45:41;94748.09;;;32.52;31.03
6425;BME280;12193;42.642;23.384;2022-07-23T07:48:11;94748.91;;;33.77;29.60
6425;BME280;12193;42.642;23.384;2022-07-23T07:50:40;94746.91;;;34.25;29.27
6425;BME280;12193;42.642;23.384;2022-07-23T07:53:09;94756.53;;;33.75;29.38
6425;BME280;12193;42.642;23.384;2022-07-23T07:55:39;94752.28;;;33.50;30.32
6425;BME280;12193;42.642;23.384;2022-07-23T07:58:08;94753.28;;;32.36;32.58
6425;BME280;12193;42.642;23.384;2022-07-23T08:00:40;94750.47;;;33.42;29.29
6425;BME280;12193;42.642;23.384;2022-07-23T08:03:10;94751.81;;;32.59;30.11
6425;BME280;12193;42.642;23.384;2022-07-23T08:05:39;94743.25;;;32.45;29.88
6425;BME280;12193;42.642;23.384;2022-07-23T08:08:08;94738.72;;;33.02;29.20
6425;BME280;12193;42.642;23.384;2022-07-23T08:10:41;94732.59;;;33.13;29.53
6425;BME280;12193;42.642;23.384;2022-07-23T08:13:13;94731.75;;;34.48;28.79
6425;BME280;12193;42.642;23.384;2022-07-23T08:15:46;94734.72;;;32.43;30.33
6425;BME280;12193;42.642;23.384;2022-07-23T08:18:15;94737.38;;;32.64;30.48
6425;BME280;12193;42.642;23.384;2022-07-23T08:20:45;94742.50;;;32.57;30.75
6425;BME280;12193;42.642;23.384;2022-07-23T08:23:14;94734.75;;;33.32;29.20
6425;BME280;12193;42.642;23.384;2022-07-23T08:25:46;94732.47;;;33.58;28.88
6425;BME280;12193;42.642;23.384;2022-07-23T08:28:15;94736.34;;;33.69;28.98
6425;BME280;12193;42.642;23.384;2022-07-23T08:30:48;94732.94;;;34.74;28.43
6425;BME280;12193;42.642;23.384;2022-07-23T08:33:18;94732.44;;;35.00;27.38
6425;BME280;12193;42.642;23.384;2022-07-23T08:35:48;94732.41;;;34.29;29.06
6425;BME280;12193;42.642;23.384;2022-07-23T08:38:20;94726.19;;;34.41;28.51
6425;BME280;12193;42.642;23.384;2022-07-23T08:40:52;94725.28;;;33.74;28.61
6425;BME280;12193;42.642;23.384;2022-07-23T08:43:25;94733.56;;;34.16;28.38
6425;BME280;12193;42.642;23.384;2022-07-23T08:45:59;94728.03;;;34.25;28.59
6425;BME280;12193;42.642;23.384;2022-07-23T08:48:30;94732.41;;;35.58;27.06
6425;BME280;12193;42.642;23.384;2022-07-23T08:51:02;94726.25;;;34.05;27.87
6425;BME280;12193;42.642;23.384;2022-07-23T08:53:33;94728.34;;;33.72;28.93
6425;BME280;12193;42.642;23.384;2022-07-23T08:56:04;94727.34;;;35.10;27.91
6425;BME280;12193;42.642;23.384;2022-07-23T08:58:34;94727.84;;;35.16;27.86
6425;BME280;12193;42.642;23.384;2022-07-23T09:01:06;94727.44;;;36.10;27.15
6425;BME280;12193;42.642;23.384;2022-07-23T09:03:37;94722.47;;;35.31;28.19
6425;BME280;12193;42.642;23.384;2022-07-23T09:06:07;94720.06;;;36.10;26.19
6425;BME280;12193;42.642;23.384;2022-07-23T09:08:38;94714.16;;;35.89;26.89
6425;BME280;12193;42.642;23.384;2022-07-23T09:11:08;94721.84;;;34.64;27.69
6425;BME280;12193;42.642;23.384;2022-07-23T09:13:40;94715.63;;;34.36;27.18
6425;BME280;12193;42.642;23.384;2022-07-23T09:16:15;94715.94;;;34.89;26.83
6425;BME280;12193;42.642;23.384;2022-07-23T09:18:47;94716.09;;;35.54;27.92
6425;BME280;12193;42.642;23.384;2022-07-23T09:21:22;94714.59;;;35.91;26.19
6425;BME280;12193;42.642;23.384;2022-07-23T09:23:54;94712.47;;;36.35;25.53
6425;BME280;12193;42.642;23.384;2022-07-23T09:26:29;94702.91;;;36.97;24.60
6425;BME280;12193;42.642;23.384;2022-07-23T09:29:02;94703.81;;;37.50;24.65
6425;BME280;12193;42.642;23.384;2022-07-23T09:31:46;94704.22;;;37.29;24.34
6425;BME280;12193;42.642;23.384;2022-07-23T09:34:18;94705.06;;;36.92;24.03
6425;BME280;12193;42.642;23.384;2022-07-23T09:36:49;94697.91;;;37.22;23.74
6425;BME280;12193;42.642;23.384;2022-07-23T09:39:25;94697.97;;;37.73;24.05
6425;BME280;12193;42.642;23.384;2022-07-23T09:41:56;94693.28;;;36.81;24.32
6425;BME280;12193;42.642;23.384;2022-07-23T09:44:25;94685.88;;;37.00;24.37
6425;BME280;12193;42.642;23.384;2022-07-23T09:47:00;94685.59;;;37.05;23.95
6425;BME280;12193;42.642;23.384;2022-07-23T09:49:30;94680.59;;;37.52;23.52
6425;BME280;12193;42.642;23.384;2022-07-23T09:52:00;94684.47;;;36.65;23.67
6425;BME280;12193;42.642;23.384;2022-07-23T09:54:36;94684.38;;;36.24;22.38
6425;BME280;12193;42.642;23.384;2022-07-23T09:57:08;94684.19;;;36.51;22.89
6425;BME280;12193;42.642;23.384;2022-07-23T09:59:43;94676.19;;;36.58;21.74
6425;BME280;12193;42.642;23.384;2022-07-23T10:02:16;94672.03;;;37.50;21.36
6425;BME280;12193;42.642;23.384;2022-07-23T10:04:47;94666.47;;;38.24;21.26
6425;BME280;12193;42.642;23.384;2022-07-23T10:07:17;94666.84;;;37.93;22.10
6425;BME280;12193;42.642;23.384;2022-07-23T10:09:50;94659.25;;;37.28;21.84
6425;BME280;12193;42.642;23.384;2022-07-23T10:12:20;94654.47;;;37.70;21.83
6425;BME280;12193;42.642;23.384;2022-07-23T10:15:04;94654.34;;;38.80;20.99
6425;BME280;12193;42.642;23.384;2022-07-23T10:17:36;94648.66;;;39.39;20.93
6425;BME280;12193;42.642;23.384;2022-07-23T10:20:06;94645.22;;;38.63;20.64
6425;BME280;12193;42.642;23.384;2022-07-23T10:22:37;94648.00;;;39.09;20.44
6425;BME280;12193;42.642;23.384;2022-07-23T10:25:11;94645.38;;;38.14;19.71
6425;BME280;12193;42.642;23.384;2022-07-23T10:28:03;94637.31;;;38.51;20.25
6425;BME280;12193;42.642;23.384;2022-07-23T10:30:40;94636.41;;;39.16;19.34
6425;BME280;12193;42.642;23.384;2022-07-23T10:33:23;94647.72;;;39.18;18.76
6425;BME280;12193;42.642;23.384;2022-07-23T10:36:01;94637.00;;;38.95;18.96
6425;BME280;12193;42.642;23.384;2022-07-23T10:38:39;94638.53;;;39.36;18.08
6425;BME280;12193;42.642;23.384;2022-07-23T10:41:12;94637.63;;;39.69;17.72
6425;BME280;12193;42.642;23.384;2022-07-23T10:43:41;94630.69;;;39.28;18.46
6425;BME280;12193;42.642;23.384;2022-07-23T10:46:24;94631.06;;;38.83;18.43
6425;BME280;12193;42.642;23.384;2022-07-23T10:49:22;94617.84;;;39.28;17.49
6425;BME280;12193;42.642;23.384;2022-07-23T10:52:20;94620.38;;;38.67;18.38
6425;BME280;12193;42.642;23.384;2022-07-23T10:54:51;94618.38;;;38.61;18.48
6425;BME280;12193;42.642;23.384;2022-07-23T10:57:21;94612.31;;;38.05;19.10
6425;BME280;12193;42.642;23.384;2022-07-23T11:00:11;94601.59;;;38.19;18.02
6425;BME280;12193;42.642;23.384;2022-07-23T11:02:43;94606.09;;;38.74;17.87
6425;BME280;12193;42.642;23.384;2022-07-23T11:05:17;94596.69;;;39.08;17.32
6425;BME280;12193;42.642;23.384;2022-07-23T11:08:10;94597.91;;;40.46;15.43
6425;BME280;12193;42.642;23.384;2022-07-23T11:10:43;94597.00;;;40.10;16.14
6425;BME280;12193;42.642;23.384;2022-07-23T11:16:19;94585.47;;;38.69;14.93
6425;BME280;12193;42.642;23.384;2022-07-23T11:19:06;94580.84;;;39.17;15.24
6425;BME280;12193;42.642;23.384;2022-07-23T11:21:50;94577.97;;;39.50;14.35
6425;BME280;12193;42.642;23.384;2022-07-23T11:24:23;94576.03;;;39.00;14.40
6425;BME280;12193;42.642;23.384;2022-07-23T11:27:02;94576.22;;;38.38;14.94
6425;BME280;12193;42.642;23.384;2022-07-23T11:29:48;94583.25;;;39.29;14.44
6425;BME280;12193;42.642;23.384;2022-07-23T11:32:22;94566.28;;;39.49;14.40
6425;BME280;12193;42.642;23.384;2022-07-23T11:34:53;94565.88;;;38.93;13.99
6425;BME280;12193;42.642;23.384;2022-07-23T11:37:42;94567.91;;;39.03;13.89
6425;BME280;12193;42.642;23.384;2022-07-23T11:40:15;94568.66;;;39.00;13.05
6425;BME280;12193;42.642;23.384;2022-07-23T11:42:53;94568.13;;;40.02;12.64
6425;BME280;12193;42.642;23.384;2022-07-23T11:45:25;94566.56;;;39.98;13.19
6425;BME280;12193;42.642;23.384;2022-07-23T11:47:54;94556.06;;;40.00;13.70
6425;BME280;12193;42.642;23.384;2022-07-23T11:50:24;94557.78;;;40.71;13.96
6425;BME280;12193;42.642;23.384;2022-07-23T11:52:56;94551.28;;;39.12;14.47
6425;BME280;12193;42.642;23.384;2022-07-23T11:55:26;94549.69;;;38.67;14.92
6425;BME280;12193;42.642;23.384;2022-07-23T11:57:55;94549.91;;;40.24;13.81
6425;BME280;12193;42.642;23.384;2022-07-23T12:00:26;94550.38;;;40.54;13.81
6425;BME280;12193;42.642;23.384;2022-07-23T12:02:57;94549.22;;;40.69;13.67
6425;BME280;12193;42.642;23.384;2022-07-23T12:05:30;94541.81;;;40.73;13.96
6425;BME280;12193;42.642;23.384;2022-07-23T12:08:04;94545.69;;;40.37;14.04
6425;BME280;12193;42.642;23.384;2022-07-23T12:10:35;94543.78;;;39.02;14.36
6425;BME280;12193;42.642;23.384;2022-07-23T12:13:06;94532.44;;;39.50;14.13
6425;BME280;12193;42.642;23.384;2022-07-23T12:15:38;94538.16;;;40.02;13.88
6425;BME280;12193;42.642;23.384;2022-07-23T12:18:09;94535.94;;;40.39;13.69
6425;BME280;12193;42.642;23.384;2022-07-23T12:20:41;94528.47;;;40.05;14.36
6425;BME280;12193;42.642;23.384;2022-07-23T12:23:16;94530.00;;;39.28;14.13
6425;BME280;12193;42.642;23.384;2022-07-23T12:25:48;94525.66;;;39.20;14.43
6425;BME280;12193;42.642;23.384;2022-07-23T12:28:19;94522.59;;;39.25;13.89
6425;BME280;12193;42.642;23.384;2022-07-23T12:30:50;94524.06;;;39.90;13.86
6425;BME280;12193;42.642;23.384;2022-07-23T12:33:24;94522.47;;;39.75;13.77
6425;BME280;12193;42.642;23.384;2022-07-23T12:35:55;94523.00;;;39.27;13.04
6425;BME280;12193;42.642;23.384;2022-07-23T12:38:36;94513.81;;;38.48;12.71
6425;BME280;12193;42.642;23.384;2022-07-23T12:41:06;94515.47;;;39.77;12.50
6425;BME280;12193;42.642;23.384;2022-07-23T12:43:37;94509.88;;;40.56;13.05
6425;BME280;12193;42.642;23.384;2022-07-23T12:46:09;94507.94;;;39.43;12.86
6425;BME280;12193;42.642;23.384;2022-07-23T12:48:50;94513.50;;;39.03;13.34
6425;BME280;12193;42.642;23.384;2022-07-23T12:51:20;94516.59;;;38.19;13.06
6425;BME280;12193;42.642;23.384;2022-07-23T12:53:54;94505.97;;;38.43;14.28
6425;BME280;12193;42.642;23.384;2022-07-23T12:56:28;94506.16;;;37.88;14.45
6425;BME280;12193;42.642;23.384;2022-07-23T12:58:58;94509.81;;;37.69;14.63
6425;BME280;12193;42.642;23.384;2022-07-23T13:01:30;94505.66;;;38.12;14.52
6425;BME280;12193;42.642;23.384;2022-07-23T13:04:01;94500.22;;;37.79;13.84
6425;BME280;12193;42.642;23.384;2022-07-23T13:06:33;94499.47;;;37.49;14.17
6425;BME280;12193;42.642;23.384;2022-07-23T13:09:06;94497.97;;;36.96;14.37
6425;BME280;12193;42.642;23.384;2022-07-23T13:11:36;94491.69;;;36.92;14.25
6425;BME280;12193;42.642;23.384;2022-07-23T13:14:06;94493.28;;;36.26;14.08
6425;BME280;12193;42.642;23.384;2022-07-23T13:16:35;94487.16;;;36.51;13.86
6425;BME280;12193;42.642;23.384;2022-07-23T13:19:05;94490.03;;;36.62;14.36
6425;BME280;12193;42.642;23.384;2022-07-23T13:21:35;94492.97;;;36.76;14.75
6425;BME280;12193;42.642;23.384;2022-07-23T13:24:07;94492.06;;;36.24;14.84
6425;BME280;12193;42.642;23.384;2022-07-23T13:26:38;94495.09;;;36.63;14.97